sensor_id;sensor_type;location;lat;lon;timestamp;temperature;humidity
68764;DHT22;55754;52.038;5.566;2023-03-23T00:00:06;13.10;99.90
68764;DHT22;55754;52.038;5.566;2023-03-23T00:02:32;12.00;99.90
68764;DHT22;55754;52.038;5.566;2023-03-23T00:05:01;12.10;99.90
68764;DHT22;55754;52.038;5.566;2023-03-23T00:07:28;12.70;99.90
68764;DHT22;55754;52.038;5.566;2023-03-23T00:09:55;12.40;99.90
68764;DHT22;55754;52.038;5.566;2023-03-23T00:12:21;12.00;99.90
68764;DHT22;55754;52.038;5.566;2023-03-23T00:15:02;12.10;99.90
68764;DHT22;55754;52.038;5.566;2023-03-23T00:17:29;12.10;99.90
68764;DHT22;55754;52.038;5.566;2023-03-23T00:19:55;12.10;99.90
68764;DHT22;55754;52.038;5.566;2023-03-23T00:22:21;12.40;99.90
68764;DHT22;55754;52.038;5.566;2023-03-23T00:24:47;13.00;99.90
68764;DHT22;55754;52.038;5.566;2023-03-23T00:27:18;13.00;99.90
68764;DHT22;55754;52.038;5.566;2023-03-23T00:29:47;12.10;99.90
68764;DHT22;55754;52.038;5.566;2023-03-23T00:32:13;12.10;99.90
68764;DHT22;55754;52.038;5.566;2023-03-23T00:34:40;12.10;99.90
68764;DHT22;55754;52.038;5.566;2023-03-23T00:37:08;12.10;99.90
68764;DHT22;55754;52.038;5.566;2023-03-23T00:39:38;12.70;99.90
68764;DHT22;55754;52.038;5.566;2023-03-23T00:42:05;12.30;99.90
68764;DHT22;55754;52.038;5.566;2023-03-23T00:44:32;12.10;99.90
68764;DHT22;55754;52.038;5.566;2023-03-23T00:47:01;11.70;99.90
68764;DHT22;55754;52.038;5.566;2023-03-23T00:49:29;12.10;99.90
68764;DHT22;55754;52.038;5.566;2023-03-23T00:51:56;12.20;99.90
68764;DHT22;55754;52.038;5.566;2023-03-23T00:54:23;12.00;99.90
68764;DHT22;55754;52.038;5.566;2023-03-23T00:56:49;12.50;99.90
68764;DHT22;55754;52.038;5.566;2023-03-23T00:59:15;13.00;99.90
68764;DHT22;55754;52.038;5.566;2023-03-23T01:01:41;12.10;99.90
68764;DHT22;55754;52.038;5.566;2023-03-23T01:04:07;12.30;99.90
68764;DHT22;55754;52.038;5.566;2023-03-23T01:06:36;13.00;99.90
68764;DHT22;55754;52.038;5.566;2023-03-23T01:09:07;12.10;99.90
68764;DHT22;55754;52.038;5.566;2023-03-23T01:11:33;12.10;99.90
68764;DHT22;55754;52.038;5.566;2023-03-23T01:13:58;11.90;99.90
68764;DHT22;55754;52.038;5.566;2023-03-23T01:16:24;12.50;99.90
68764;DHT22;55754;52.038;5.566;2023-03-23T01:18:49;12.10;99.70
68764;DHT22;55754;52.038;5.566;2023-03-23T01:21:17;12.10;99.50
68764;DHT22;55754;52.038;5.566;2023-03-23T01:23:44;12.40;99.50
68764;DHT22;55754;52.038;5.566;2023-03-23T01:26:13;12.30;99.40
68764;DHT22;55754;52.038;5.566;2023-03-23T01:28:39;13.20;99.40
68764;DHT22;55754;52.038;5.566;2023-03-23T01:31:16;12.10;99.10
68764;DHT22;55754;52.038;5.566;2023-03-23T01:33:43;12.10;99.00
68764;DHT22;55754;52.038;5.566;2023-03-23T01:36:17;12.30;99.10
68764;DHT22;55754;52.038;5.566;2023-03-23T01:38:45;12.20;98.90
68764;DHT22;55754;52.038;5.566;2023-03-23T01:41:11;12.20;99.00
68764;DHT22;55754;52.038;5.566;2023-03-23T01:43:56;12.20;98.90
68764;DHT22;55754;52.038;5.566;2023-03-23T01:46:25;12.80;99.10
68764;DHT22;55754;52.038;5.566;2023-03-23T01:48:50;12.30;99.00
68764;DHT22;55754;52.038;5.566;2023-03-23T01:51:17;12.10;99.00
68764;DHT22;55754;52.038;5.566;2023-03-23T01:53:54;12.10;98.90
68764;DHT22;55754;52.038;5.566;2023-03-23T01:56:23;12.20;98.90
68764;DHT22;55754;52.038;5.566;2023-03-23T01:58:55;12.40;98.90
68764;DHT22;55754;52.038;5.566;2023-03-23T02:01:22;12.40;99.00
68764;DHT22;55754;52.038;5.566;2023-03-23T02:03:51;12.20;98.90
68764;DHT22;55754;52.038;5.566;2023-03-23T02:06:17;12.20;99.00
68764;DHT22;55754;52.038;5.566;2023-03-23T02:08:43;12.50;99.00
68764;DHT22;55754;52.038;5.566;2023-03-23T02:11:14;12.20;98.90
68764;DHT22;55754;52.038;5.566;2023-03-23T02:13:44;12.20;98.80
68764;DHT22;55754;52.038;5.566;2023-03-23T02:16:14;12.50;99.00
68764;DHT22;55754;52.038;5.566;2023-03-23T02:18:57;12.20;99.00
68764;DHT22;55754;52.038;5.566;2023-03-23T02:24:52;12.20;99.20
68764;DHT22;55754;52.038;5.566;2023-03-23T02:33:32;12.90;99.30
68764;DHT22;55754;52.038;5.566;2023-03-23T02:41:04;12.20;99.20
68764;DHT22;55754;52.038;5.566;2023-03-23T02:43:40;12.20;99.20
68764;DHT22;55754;52.038;5.566;2023-03-23T02:46:08;12.20;99.50
68764;DHT22;55754;52.038;5.566;2023-03-23T02:48:35;12.20;99.30
68764;DHT22;55754;52.038;5.566;2023-03-23T02:51:02;12.80;99.40
68764;DHT22;55754;52.038;5.566;2023-03-23T02:53:29;12.20;99.30
68764;DHT22;55754;52.038;5.566;2023-03-23T02:55:57;13.00;99.40
68764;DHT22;55754;52.038;5.566;2023-03-23T02:58:23;13.00;99.40
68764;DHT22;55754;52.038;5.566;2023-03-23T03:00:50;12.20;99.20
68764;DHT22;55754;52.038;5.566;2023-03-23T03:03:28;12.20;99.30
68764;DHT22;55754;52.038;5.566;2023-03-23T03:06:14;12.30;99.40
68764;DHT22;55754;52.038;5.566;2023-03-23T03:08:53;13.70;99.70
68764;DHT22;55754;52.038;5.566;2023-03-23T03:11:21;12.20;99.10
68764;DHT22;55754;52.038;5.566;2023-03-23T03:14:08;12.10;99.00
68764;DHT22;55754;52.038;5.566;2023-03-23T03:16:40;12.10;98.80
68764;DHT22;55754;52.038;5.566;2023-03-23T03:21:37;12.50;98.90
68764;DHT22;55754;52.038;5.566;2023-03-23T03:24:05;12.20;98.70
68764;DHT22;55754;52.038;5.566;2023-03-23T03:26:42;12.30;98.60
68764;DHT22;55754;52.038;5.566;2023-03-23T03:29:11;12.30;98.40
68764;DHT22;55754;52.038;5.566;2023-03-23T03:31:39;12.90;98.40
68764;DHT22;55754;52.038;5.566;2023-03-23T03:34:06;12.40;98.10
68764;DHT22;55754;52.038;5.566;2023-03-23T03:36:33;12.30;97.80
68764;DHT22;55754;52.038;5.566;2023-03-23T03:39:05;12.40;97.90
68764;DHT22;55754;52.038;5.566;2023-03-23T03:41:33;12.40;97.80
68764;DHT22;55754;52.038;5.566;2023-03-23T03:43:59;12.40;97.80
68764;DHT22;55754;52.038;5.566;2023-03-23T03:46:24;12.40;97.70
68764;DHT22;55754;52.038;5.566;2023-03-23T03:48:53;12.40;97.70
68764;DHT22;55754;52.038;5.566;2023-03-23T03:51:18;12.40;97.60
68764;DHT22;55754;52.038;5.566;2023-03-23T03:53:44;12.50;97.60
68764;DHT22;55754;52.038;5.566;2023-03-23T03:56:09;13.50;98.30
68764;DHT22;55754;52.038;5.566;2023-03-23T03:58:36;12.50;97.70
68764;DHT22;55754;52.038;5.566;2023-03-23T04:01:03;12.50;97.60
68764;DHT22;55754;52.038;5.566;2023-03-23T04:03:28;12.50;97.50
68764;DHT22;55754;52.038;5.566;2023-03-23T04:05:54;13.00;97.70
68764;DHT22;55754;52.038;5.566;2023-03-23T04:08:21;12.50;97.40
68764;DHT22;55754;52.038;5.566;2023-03-23T04:10:48;13.20;97.60
68764;DHT22;55754;52.038;5.566;2023-03-23T04:13:17;12.90;97.50
68764;DHT22;55754;52.038;5.566;2023-03-23T04:15:44;12.50;97.30
68764;DHT22;55754;52.038;5.566;2023-03-23T04:18:09;12.50;97.40
68764;DHT22;55754;52.038;5.566;2023-03-23T04:20:35;13.20;97.60
68764;DHT22;55754;52.038;5.566;2023-03-23T04:23:02;12.50;97.40
68764;DHT22;55754;52.038;5.566;2023-03-23T04:25:28;12.50;97.20
68764;DHT22;55754;52.038;5.566;2023-03-23T04:27:53;12.20;97.00
68764;DHT22;55754;52.038;5.566;2023-03-23T04:30:23;12.50;97.00
68764;DHT22;55754;52.038;5.566;2023-03-23T04:32:50;13.20;97.00
68764;DHT22;55754;52.038;5.566;2023-03-23T04:35:22;13.80;97.00
68764;DHT22;55754;52.038;5.566;2023-03-23T04:37:48;12.60;96.80
68764;DHT22;55754;52.038;5.566;2023-03-23T04:40:15;13.00;96.70
68764;DHT22;55754;52.038;5.566;2023-03-23T04:42:42;12.60;96.40
68764;DHT22;55754;52.038;5.566;2023-03-23T04:45:14;13.30;96.60
68764;DHT22;55754;52.038;5.566;2023-03-23T04:47:41;12.60;96.10
68764;DHT22;55754;52.038;5.566;2023-03-23T04:50:21;12.50;95.90
68764;DHT22;55754;52.038;5.566;2023-03-23T04:52:50;13.20;96.20
68764;DHT22;55754;52.038;5.566;2023-03-23T04:55:17;13.60;96.10
68764;DHT22;55754;52.038;5.566;2023-03-23T04:57:44;12.60;95.80
68764;DHT22;55754;52.038;5.566;2023-03-23T05:00:10;12.90;95.60
68764;DHT22;55754;52.038;5.566;2023-03-23T05:02:44;12.60;95.50
68764;DHT22;55754;52.038;5.566;2023-03-23T05:05:13;12.00;95.20
68764;DHT22;55754;52.038;5.566;2023-03-23T05:07:40;13.70;95.50
68764;DHT22;55754;52.038;5.566;2023-03-23T05:10:07;12.60;95.20
68764;DHT22;55754;52.038;5.566;2023-03-23T05:12:34;12.60;95.30
68764;DHT22;55754;52.038;5.566;2023-03-23T05:14:59;12.60;95.10
68764;DHT22;55754;52.038;5.566;2023-03-23T05:17:26;12.60;95.10
68764;DHT22;55754;52.038;5.566;2023-03-23T05:19:52;12.50;95.60
68764;DHT22;55754;52.038;5.566;2023-03-23T05:22:18;12.60;95.50
68764;DHT22;55754;52.038;5.566;2023-03-23T05:24:46;12.50;95.70
68764;DHT22;55754;52.038;5.566;2023-03-23T05:27:13;12.50;95.70
68764;DHT22;55754;52.038;5.566;2023-03-23T05:29:40;12.50;95.80
68764;DHT22;55754;52.038;5.566;2023-03-23T05:32:07;12.50;95.80
68764;DHT22;55754;52.038;5.566;2023-03-23T05:34:35;12.40;96.10
68764;DHT22;55754;52.038;5.566;2023-03-23T05:37:02;12.50;96.10
68764;DHT22;55754;52.038;5.566;2023-03-23T05:39:30;12.40;96.10
68764;DHT22;55754;52.038;5.566;2023-03-23T05:41:57;12.30;96.10
68764;DHT22;55754;52.038;5.566;2023-03-23T05:44:23;12.40;96.30
68764;DHT22;55754;52.038;5.566;2023-03-23T05:46:49;12.40;96.40
68764;DHT22;55754;52.038;5.566;2023-03-23T05:49:17;12.40;96.50
68764;DHT22;55754;52.038;5.566;2023-03-23T05:51:43;12.40;96.60
68764;DHT22;55754;52.038;5.566;2023-03-23T05:54:09;12.40;96.50
68764;DHT22;55754;52.038;5.566;2023-03-23T05:56:36;12.40;96.40
68764;DHT22;55754;52.038;5.566;2023-03-23T05:59:02;12.40;96.50
68764;DHT22;55754;52.038;5.566;2023-03-23T06:01:31;12.40;96.50
68764;DHT22;55754;52.038;5.566;2023-03-23T06:03:57;12.40;96.40
68764;DHT22;55754;52.038;5.566;2023-03-23T06:06:27;12.40;96.60
68764;DHT22;55754;52.038;5.566;2023-03-23T06:08:54;12.40;96.40
68764;DHT22;55754;52.038;5.566;2023-03-23T06:11:20;12.40;96.20
68764;DHT22;55754;52.038;5.566;2023-03-23T06:13:46;12.40;96.40
68764;DHT22;55754;52.038;5.566;2023-03-23T06:16:11;12.50;96.20
68764;DHT22;55754;52.038;5.566;2023-03-23T06:18:40;12.50;96.20
68764;DHT22;55754;52.038;5.566;2023-03-23T06:21:09;12.50;96.00
68764;DHT22;55754;52.038;5.566;2023-03-23T06:23:35;12.50;95.90
68764;DHT22;55754;52.038;5.566;2023-03-23T06:26:05;12.90;96.00
68764;DHT22;55754;52.038;5.566;2023-03-23T06:28:31;12.50;95.70
68764;DHT22;55754;52.038;5.566;2023-03-23T06:31:02;12.50;95.80
68764;DHT22;55754;52.038;5.566;2023-03-23T06:33:33;12.50;95.70
68764;DHT22;55754;52.038;5.566;2023-03-23T06:35:59;12.50;95.70
68764;DHT22;55754;52.038;5.566;2023-03-23T06:38:26;12.50;95.60
68764;DHT22;55754;52.038;5.566;2023-03-23T06:40:54;12.60;95.60
68764;DHT22;55754;52.038;5.566;2023-03-23T06:43:20;12.50;95.60
68764;DHT22;55754;52.038;5.566;2023-03-23T06:45:46;12.50;95.60
68764;DHT22;55754;52.038;5.566;2023-03-23T06:48:12;12.60;95.70
68764;DHT22;55754;52.038;5.566;2023-03-23T06:50:38;12.50;96.00
68764;DHT22;55754;52.038;5.566;2023-03-23T06:53:07;12.50;96.20
68764;DHT22;55754;52.038;5.566;2023-03-23T06:55:32;12.50;96.40
68764;DHT22;55754;52.038;5.566;2023-03-23T06:57:58;12.50;96.80
68764;DHT22;55754;52.038;5.566;2023-03-23T07:00:27;12.50;97.00
68764;DHT22;55754;52.038;5.566;2023-03-23T07:02:54;12.40;96.90
68764;DHT22;55754;52.038;5.566;2023-03-23T07:05:23;12.40;97.10
68764;DHT22;55754;52.038;5.566;2023-03-23T07:07:50;12.50;97.00
68764;DHT22;55754;52.038;5.566;2023-03-23T07:10:16;12.40;97.00
68764;DHT22;55754;52.038;5.566;2023-03-23T07:12:42;12.50;97.10
68764;DHT22;55754;52.038;5.566;2023-03-23T07:15:29;12.50;96.90
68764;DHT22;55754;52.038;5.566;2023-03-23T07:17:55;12.50;96.90
68764;DHT22;55754;52.038;5.566;2023-03-23T07:20:21;12.60;96.50
68764;DHT22;55754;52.038;5.566;2023-03-23T07:22:48;12.80;96.50
68764;DHT22;55754;52.038;5.566;2023-03-23T07:25:13;12.60;96.30
68764;DHT22;55754;52.038;5.566;2023-03-23T07:27:40;12.60;95.90
68764;DHT22;55754;52.038;5.566;2023-03-23T07:30:06;12.50;95.50
68764;DHT22;55754;52.038;5.566;2023-03-23T07:32:32;12.60;95.30
68764;DHT22;55754;52.038;5.566;2023-03-23T07:34:58;12.60;95.40
68764;DHT22;55754;52.038;5.566;2023-03-23T07:37:24;12.60;95.40
68764;DHT22;55754;52.038;5.566;2023-03-23T07:39:49;12.60;95.20
68764;DHT22;55754;52.038;5.566;2023-03-23T07:42:15;12.60;95.40
68764;DHT22;55754;52.038;5.566;2023-03-23T07:44:41;12.60;95.30
68764;DHT22;55754;52.038;5.566;2023-03-23T07:47:06;12.60;95.20
68764;DHT22;55754;52.038;5.566;2023-03-23T07:49:32;12.60;95.20
68764;DHT22;55754;52.038;5.566;2023-03-23T07:51:58;12.60;95.40
68764;DHT22;55754;52.038;5.566;2023-03-23T07:54:24;12.30;95.50
68764;DHT22;55754;52.038;5.566;2023-03-23T07:56:50;12.60;95.90
68764;DHT22;55754;52.038;5.566;2023-03-23T07:59:16;12.60;96.10
68764;DHT22;55754;52.038;5.566;2023-03-23T08:01:42;12.60;96.50
68764;DHT22;55754;52.038;5.566;2023-03-23T08:04:07;12.60;96.50
68764;DHT22;55754;52.038;5.566;2023-03-23T08:06:34;12.50;96.60
68764;DHT22;55754;52.038;5.566;2023-03-23T08:09:00;13.80;97.30
68764;DHT22;55754;52.038;5.566;2023-03-23T08:11:28;12.50;96.90
68764;DHT22;55754;52.038;5.566;2023-03-23T08:13:53;12.40;97.20
68764;DHT22;55754;52.038;5.566;2023-03-23T08:16:19;12.40;97.20
68764;DHT22;55754;52.038;5.566;2023-03-23T08:18:45;13.30;97.50
68764;DHT22;55754;52.038;5.566;2023-03-23T08:21:12;12.30;97.40
68764;DHT22;55754;52.038;5.566;2023-03-23T08:23:38;12.30;97.90
68764;DHT22;55754;52.038;5.566;2023-03-23T08:26:07;12.30;98.00
68764;DHT22;55754;52.038;5.566;2023-03-23T08:28:34;12.40;98.10
68764;DHT22;55754;52.038;5.566;2023-03-23T08:31:05;12.40;98.60
68764;DHT22;55754;52.038;5.566;2023-03-23T08:33:32;12.40;98.50
68764;DHT22;55754;52.038;5.566;2023-03-23T08:35:59;12.40;98.40
68764;DHT22;55754;52.038;5.566;2023-03-23T08:38:27;12.40;98.60
68764;DHT22;55754;52.038;5.566;2023-03-23T08:40:58;12.40;98.80
68764;DHT22;55754;52.038;5.566;2023-03-23T08:43:24;12.50;98.80
68764;DHT22;55754;52.038;5.566;2023-03-23T08:45:50;12.50;98.50
68764;DHT22;55754;52.038;5.566;2023-03-23T08:48:16;12.50;98.40
68764;DHT22;55754;52.038;5.566;2023-03-23T08:50:43;12.60;98.40
68764;DHT22;55754;52.038;5.566;2023-03-23T08:53:09;12.60;98.20
68764;DHT22;55754;52.038;5.566;2023-03-23T08:55:35;12.60;98.20
68764;DHT22;55754;52.038;5.566;2023-03-23T08:58:03;12.60;98.00
68764;DHT22;55754;52.038;5.566;2023-03-23T09:00:29;12.70;97.70
68764;DHT22;55754;52.038;5.566;2023-03-23T09:02:55;12.70;97.50
68764;DHT22;55754;52.038;5.566;2023-03-23T09:05:26;12.70;97.30
68764;DHT22;55754;52.038;5.566;2023-03-23T09:07:55;12.80;97.00
68764;DHT22;55754;52.038;5.566;2023-03-23T09:10:23;13.50;97.00
68764;DHT22;55754;52.038;5.566;2023-03-23T09:12:51;13.60;96.70
68764;DHT22;55754;52.038;5.566;2023-03-23T09:15:17;13.10;96.50
68764;DHT22;55754;52.038;5.566;2023-03-23T09:17:48;13.30;96.20
68764;DHT22;55754;52.038;5.566;2023-03-23T09:20:17;13.50;95.70
68764;DHT22;55754;52.038;5.566;2023-03-23T09:22:45;13.40;95.00
68764;DHT22;55754;52.038;5.566;2023-03-23T09:25:15;13.40;94.90
68764;DHT22;55754;52.038;5.566;2023-03-23T09:27:42;13.50;95.00
68764;DHT22;55754;52.038;5.566;2023-03-23T09:30:11;13.60;94.30
68764;DHT22;55754;52.038;5.566;2023-03-23T09:32:38;13.70;94.20
68764;DHT22;55754;52.038;5.566;2023-03-23T09:35:06;13.90;94.20
68764;DHT22;55754;52.038;5.566;2023-03-23T09:37:38;14.10;94.40
68764;DHT22;55754;52.038;5.566;2023-03-23T09:40:05;14.20;93.50
68764;DHT22;55754;52.038;5.566;2023-03-23T09:45:08;14.50;92.80
68764;DHT22;55754;52.038;5.566;2023-03-23T09:47:57;14.40;91.50
68764;DHT22;55754;52.038;5.566;2023-03-23T09:50:29;14.50;91.10
68764;DHT22;55754;52.038;5.566;2023-03-23T09:53:13;14.50;91.50
68764;DHT22;55754;52.038;5.566;2023-03-23T09:55:42;14.60;91.30
68764;DHT22;55754;52.038;5.566;2023-03-23T09:58:28;14.90;91.50
68764;DHT22;55754;52.038;5.566;2023-03-23T10:01:05;14.90;90.40
68764;DHT22;55754;52.038;5.566;2023-03-23T10:03:37;15.00;90.40
68764;DHT22;55754;52.038;5.566;2023-03-23T10:06:05;15.10;90.30
68764;DHT22;55754;52.038;5.566;2023-03-23T10:08:33;15.10;88.90
68764;DHT22;55754;52.038;5.566;2023-03-23T10:14:00;15.10;86.80
68764;DHT22;55754;52.038;5.566;2023-03-23T10:16:31;15.10;85.60
68764;DHT22;55754;52.038;5.566;2023-03-23T10:22:11;15.10;85.30
68764;DHT22;55754;52.038;5.566;2023-03-23T10:24:51;15.10;84.90
68764;DHT22;55754;52.038;5.566;2023-03-23T10:29:54;15.30;86.10
68764;DHT22;55754;52.038;5.566;2023-03-23T10:35:42;15.40;85.10
68764;DHT22;55754;52.038;5.566;2023-03-23T10:38:15;15.40;83.30
68764;DHT22;55754;52.038;5.566;2023-03-23T10:40:54;15.40;83.20
68764;DHT22;55754;52.038;5.566;2023-03-23T10:43:20;15.50;83.10
68764;DHT22;55754;52.038;5.566;2023-03-23T10:45:53;15.60;83.60
68764;DHT22;55754;52.038;5.566;2023-03-23T10:48:30;15.70;81.80
68764;DHT22;55754;52.038;5.566;2023-03-23T10:51:00;15.70;81.80
68764;DHT22;55754;52.038;5.566;2023-03-23T10:53:36;15.70;81.40
68764;DHT22;55754;52.038;5.566;2023-03-23T10:56:03;15.60;79.00
68764;DHT22;55754;52.038;5.566;2023-03-23T10:58:34;15.60;81.00
68764;DHT22;55754;52.038;5.566;2023-03-23T11:01:02;15.80;80.40
68764;DHT22;55754;52.038;5.566;2023-03-23T11:03:48;16.00;80.10
68764;DHT22;55754;52.038;5.566;2023-03-23T11:06:24;16.20;76.30
68764;DHT22;55754;52.038;5.566;2023-03-23T11:08:55;16.30;77.00
68764;DHT22;55754;52.038;5.566;2023-03-23T11:14:00;16.70;75.70
68764;DHT22;55754;52.038;5.566;2023-03-23T11:16:29;16.90;74.20
68764;DHT22;55754;52.038;5.566;2023-03-23T11:18:57;16.80;69.50
68764;DHT22;55754;52.038;5.566;2023-03-23T11:21:24;16.60;70.90
68764;DHT22;55754;52.038;5.566;2023-03-23T11:23:55;16.30;70.60
68764;DHT22;55754;52.038;5.566;2023-03-23T11:26:32;16.20;71.30
68764;DHT22;55754;52.038;5.566;2023-03-23T11:29:19;16.10;73.30
68764;DHT22;55754;52.038;5.566;2023-03-23T11:31:48;16.10;71.80
68764;DHT22;55754;52.038;5.566;2023-03-23T11:34:39;16.20;72.60
68764;DHT22;55754;52.038;5.566;2023-03-23T11:40:16;16.10;71.70
68764;DHT22;55754;52.038;5.566;2023-03-23T11:45:37;15.80;71.50
68764;DHT22;55754;52.038;5.566;2023-03-23T11:48:26;15.70;71.80
68764;DHT22;55754;52.038;5.566;2023-03-23T11:51:55;15.70;73.00
68764;DHT22;55754;52.038;5.566;2023-03-23T11:54:36;15.80;71.40
68764;DHT22;55754;52.038;5.566;2023-03-23T11:57:10;15.90;72.60
68764;DHT22;55754;52.038;5.566;2023-03-23T11:59:37;16.00;73.40
68764;DHT22;55754;52.038;5.566;2023-03-23T12:10:58;15.80;71.20
68764;DHT22;55754;52.038;5.566;2023-03-23T12:13:41;15.70;71.00
68764;DHT22;55754;52.038;5.566;2023-03-23T12:16:31;15.50;74.40
68764;DHT22;55754;52.038;5.566;2023-03-23T12:19:21;15.40;76.30
68764;DHT22;55754;52.038;5.566;2023-03-23T12:22:13;15.50;76.60
68764;DHT22;55754;52.038;5.566;2023-03-23T12:24:49;15.50;75.00
68764;DHT22;55754;52.038;5.566;2023-03-23T12:30:26;15.40;76.30
68764;DHT22;55754;52.038;5.566;2023-03-23T12:33:16;15.50;76.30
68764;DHT22;55754;52.038;5.566;2023-03-23T12:36:11;15.50;75.80
68764;DHT22;55754;52.038;5.566;2023-03-23T12:43:54;15.40;74.90
68764;DHT22;55754;52.038;5.566;2023-03-23T12:49:05;15.40;76.10
68764;DHT22;55754;52.038;5.566;2023-03-23T12:54:17;15.50;77.00
68764;DHT22;55754;52.038;5.566;2023-03-23T12:56:58;15.50;75.50
68764;DHT22;55754;52.038;5.566;2023-03-23T13:02:10;15.60;77.30
68764;DHT22;55754;52.038;5.566;2023-03-23T13:04:40;15.60;77.20
68764;DHT22;55754;52.038;5.566;2023-03-23T13:07:14;15.70;77.30
68764;DHT22;55754;52.038;5.566;2023-03-23T13:10:07;15.80;77.20
68764;DHT22;55754;52.038;5.566;2023-03-23T13:12:35;16.00;76.10
68764;DHT22;55754;52.038;5.566;2023-03-23T13:20:48;16.10;75.30
68764;DHT22;55754;52.038;5.566;2023-03-23T13:28:59;16.30;74.60
68764;DHT22;55754;52.038;5.566;2023-03-23T13:31:38;16.40;74.40
68764;DHT22;55754;52.038;5.566;2023-03-23T13:34:28;16.40;72.70
68764;DHT22;55754;52.038;5.566;2023-03-23T13:36:57;16.50;72.90
68764;DHT22;55754;52.038;5.566;2023-03-23T13:39:26;16.50;70.30
68764;DHT22;55754;52.038;5.566;2023-03-23T13:49:56;16.50;71.70
68764;DHT22;55754;52.038;5.566;2023-03-23T14:03:32;15.90;76.20
68764;DHT22;55754;52.038;5.566;2023-03-23T14:08:36;15.60;79.90
68764;DHT22;55754;52.038;5.566;2023-03-23T14:16:38;15.40;81.00
68764;DHT22;55754;52.038;5.566;2023-03-23T14:19:23;15.40;81.90
68764;DHT22;55754;52.038;5.566;2023-03-23T14:22:00;15.60;82.50
68764;DHT22;55754;52.038;5.566;2023-03-23T14:24:33;15.60;82.10
68764;DHT22;55754;52.038;5.566;2023-03-23T14:27:21;15.70;81.20
68764;DHT22;55754;52.038;5.566;2023-03-23T14:29:58;15.70;79.30
68764;DHT22;55754;52.038;5.566;2023-03-23T14:32:27;15.70;79.40
68764;DHT22;55754;52.038;5.566;2023-03-23T14:34:54;15.70;77.20
68764;DHT22;55754;52.038;5.566;2023-03-23T14:37:21;15.70;77.60
68764;DHT22;55754;52.038;5.566;2023-03-23T14:39:49;15.80;77.70
68764;DHT22;55754;52.038;5.566;2023-03-23T14:42:18;15.90;76.40
68764;DHT22;55754;52.038;5.566;2023-03-23T14:44:47;15.90;76.90
68764;DHT22;55754;52.038;5.566;2023-03-23T14:47:23;16.00;76.50
68764;DHT22;55754;52.038;5.566;2023-03-23T14:49:55;16.00;74.10
68764;DHT22;55754;52.038;5.566;2023-03-23T14:52:23;16.00;74.30
68764;DHT22;55754;52.038;5.566;2023-03-23T14:54:53;16.00;74.70
68764;DHT22;55754;52.038;5.566;2023-03-23T14:59:50;16.00;74.10
68764;DHT22;55754;52.038;5.566;2023-03-23T15:04:48;16.00;72.90
68764;DHT22;55754;52.038;5.566;2023-03-23T15:07:15;15.90;74.00
68764;DHT22;55754;52.038;5.566;2023-03-23T15:09:44;15.90;74.60
68764;DHT22;55754;52.038;5.566;2023-03-23T15:12:22;15.90;74.40
68764;DHT22;55754;52.038;5.566;2023-03-23T15:14:51;16.00;73.60
68764;DHT22;55754;52.038;5.566;2023-03-23T15:17:29;16.10;74.80
68764;DHT22;55754;52.038;5.566;2023-03-23T15:19:56;16.10;74.50
68764;DHT22;55754;52.038;5.566;2023-03-23T15:22:30;16.10;74.50
68764;DHT22;55754;52.038;5.566;2023-03-23T15:25:19;16.10;74.10
68764;DHT22;55754;52.038;5.566;2023-03-23T15:27:54;16.10;73.70
68764;DHT22;55754;52.038;5.566;2023-03-23T15:33:00;16.10;72.90
68764;DHT22;55754;52.038;5.566;2023-03-23T15:35:34;16.10;72.80
68764;DHT22;55754;52.038;5.566;2023-03-23T15:38:24;16.00;72.90
68764;DHT22;55754;52.038;5.566;2023-03-23T15:40:52;16.00;71.60
68764;DHT22;55754;52.038;5.566;2023-03-23T15:43:21;15.90;72.90
68764;DHT22;55754;52.038;5.566;2023-03-23T15:46:03;15.90;73.10
68764;DHT22;55754;52.038;5.566;2023-03-23T15:48:33;15.90;72.60
68764;DHT22;55754;52.038;5.566;2023-03-23T15:51:01;15.80;73.50
68764;DHT22;55754;52.038;5.566;2023-03-23T15:53:34;15.80;73.50
68764;DHT22;55754;52.038;5.566;2023-03-23T15:56:04;15.80;73.90
68764;DHT22;55754;52.038;5.566;2023-03-23T15:58:30;15.80;74.00
68764;DHT22;55754;52.038;5.566;2023-03-23T16:00:56;15.80;74.30
68764;DHT22;55754;52.038;5.566;2023-03-23T16:03:25;15.80;74.50
68764;DHT22;55754;52.038;5.566;2023-03-23T16:05:58;15.80;74.70
68764;DHT22;55754;52.038;5.566;2023-03-23T16:08:25;15.80;75.20
68764;DHT22;55754;52.038;5.566;2023-03-23T16:10:51;15.80;75.20
68764;DHT22;55754;52.038;5.566;2023-03-23T16:13:16;15.80;74.90
68764;DHT22;55754;52.038;5.566;2023-03-23T16:15:43;15.80;75.10
68764;DHT22;55754;52.038;5.566;2023-03-23T16:18:19;15.90;75.30
68764;DHT22;55754;52.038;5.566;2023-03-23T16:20:47;15.90;75.10
68764;DHT22;55754;52.038;5.566;2023-03-23T16:23:13;15.90;75.40
68764;DHT22;55754;52.038;5.566;2023-03-23T16:25:39;15.90;75.60
68764;DHT22;55754;52.038;5.566;2023-03-23T16:28:05;15.90;75.60
68764;DHT22;55754;52.038;5.566;2023-03-23T16:30:33;16.00;75.60
68764;DHT22;55754;52.038;5.566;2023-03-23T16:33:00;16.00;75.80
68764;DHT22;55754;52.038;5.566;2023-03-23T16:35:25;16.00;75.80
68764;DHT22;55754;52.038;5.566;2023-03-23T16:37:53;16.00;76.00
68764;DHT22;55754;52.038;5.566;2023-03-23T16:40:20;16.00;75.80
68764;DHT22;55754;52.038;5.566;2023-03-23T16:42:45;15.90;76.40
68764;DHT22;55754;52.038;5.566;2023-03-23T16:45:12;15.90;76.10
68764;DHT22;55754;52.038;5.566;2023-03-23T16:47:39;15.90;76.20
68764;DHT22;55754;52.038;5.566;2023-03-23T16:50:07;15.90;75.90
68764;DHT22;55754;52.038;5.566;2023-03-23T16:52:36;15.90;75.90
68764;DHT22;55754;52.038;5.566;2023-03-23T16:55:02;15.90;76.00
68764;DHT22;55754;52.038;5.566;2023-03-23T16:57:28;15.80;76.00
68764;DHT22;55754;52.038;5.566;2023-03-23T16:59:54;15.80;76.20
68764;DHT22;55754;52.038;5.566;2023-03-23T17:02:23;15.80;75.80
68764;DHT22;55754;52.038;5.566;2023-03-23T17:04:48;15.70;75.90
68764;DHT22;55754;52.038;5.566;2023-03-23T17:07:14;15.70;76.00
68764;DHT22;55754;52.038;5.566;2023-03-23T17:09:39;15.70;76.10
68764;DHT22;55754;52.038;5.566;2023-03-23T17:12:05;15.70;75.50
68764;DHT22;55754;52.038;5.566;2023-03-23T17:14:31;15.70;75.20
68764;DHT22;55754;52.038;5.566;2023-03-23T17:16:57;15.70;75.30
68764;DHT22;55754;52.038;5.566;2023-03-23T17:19:23;15.60;75.30
68764;DHT22;55754;52.038;5.566;2023-03-23T17:21:49;15.60;75.40
68764;DHT22;55754;52.038;5.566;2023-03-23T17:24:16;15.60;75.50
68764;DHT22;55754;52.038;5.566;2023-03-23T17:26:42;15.50;75.40
68764;DHT22;55754;52.038;5.566;2023-03-23T17:29:07;15.50;75.20
68764;DHT22;55754;52.038;5.566;2023-03-23T17:31:33;15.50;75.40
68764;DHT22;55754;52.038;5.566;2023-03-23T17:33:59;15.50;75.40
68764;DHT22;55754;52.038;5.566;2023-03-23T17:36:25;15.50;75.90